PWSweather.com
Personal Weather Stations
Station Observations
79674
AfterstegDE 79674

AfterstegDE 79674

Lat: 47.84344, Lon: 7.92844

Elevation: 809

Station Type: Davis Vantage 2 Aktive

Latest ConditionsUpdated 2:12:14 PM GMT+01:01 Tuesday, Jul 28, 2015
Currently Today's Max Today's Min Today's Average
Temperature 63.9°F17.7°C 64.0°F17.8°C 56.1°F13.4°C 58.3°F14.6°C
Dew Point 47.8°F8.8°C 50.9°F10.5°C 47.1°F8.4°C 49.3°F9.6°C
Winds 4.0 mph N6.4 kmh N 8.9 mph NW14.3 kmh NW - 4.7 mph 7.6 kmh
Wind Gusts 2.0 mph3.2 kmh 19.0 mph30.6 kmh - -
Humidity 56% 79% 56% 72%
Pressure 29.84 in1010.5 mb 29.87 in1011.5 mb 29.82 in1009.8 mb -
Hour Temp Dew Point Humidity Winds Wind Gusts Pressure Precip Precip Rate Daily Precip Total
02:12 PM 63.9°F17.7°C 47.8°F8.8°C 56% 4.0 mph N6.4 kmh N 2.0 mph3.2 kmh 29.84 in1010.5 mb - 0.00 in0.0 mm 0.00 in0.0 mm
02:02 PM 64.0°F17.8°C 48.6°F9.2°C 57% 2.9 mph SE4.7 kmh SE 0.9 mph1.4 kmh 29.84 in1010.5 mb - 0.00 in0.0 mm 0.00 in0.0 mm
01:57 PM 63.9°F17.7°C 48.7°F9.3°C 58% 4.9 mph SE7.9 kmh SE 4.0 mph6.4 kmh 29.84 in1010.5 mb - 0.00 in0.0 mm 0.00 in0.0 mm
01:52 PM 63.7°F17.6°C 47.7°F8.7°C 56% 6.9 mph ENE11.1 kmh ENE 2.9 mph4.7 kmh 29.85 in1010.8 mb - 0.00 in0.0 mm 0.00 in0.0 mm
01:47 PM 62.1°F16.7°C 47.5°F8.6°C 59% 6.9 mph SE11.1 kmh SE 4.9 mph7.9 kmh 29.84 in1010.5 mb - 0.00 in0.0 mm 0.00 in0.0 mm
01:42 PM 62.2°F16.8°C 47.3°F8.5°C 58% 6.0 mph E9.7 kmh E 6.0 mph9.7 kmh 29.84 in1010.5 mb - 0.00 in0.0 mm 0.00 in0.0 mm
01:37 PM 62.6°F17.0°C 47.1°F8.4°C 57% 4.9 mph S7.9 kmh S 6.0 mph9.7 kmh 29.85 in1010.8 mb - 0.00 in0.0 mm 0.00 in0.0 mm
01:32 PM 62.8°F17.1°C 47.8°F8.8°C 58% 4.9 mph N7.9 kmh N 4.9 mph7.9 kmh 29.84 in1010.5 mb - 0.00 in0.0 mm 0.00 in0.0 mm
01:27 PM 62.2°F16.8°C 49.1°F9.5°C 62% 4.0 mph ESE6.4 kmh ESE 6.9 mph11.1 kmh 29.84 in1010.5 mb - 0.00 in0.0 mm 0.00 in0.0 mm
01:22 PM 61.3°F16.3°C 47.3°F8.5°C 60% 4.9 mph NE7.9 kmh NE 4.9 mph7.9 kmh 29.84 in1010.5 mb - 0.00 in0.0 mm 0.00 in0.0 mm
12:57 PM 61.2°F16.2°C 47.1°F8.4°C 60% 4.9 mph NE7.9 kmh NE 16.1 mph25.9 kmh 29.86 in1011.2 mb - 0.00 in0.0 mm 0.00 in0.0 mm
12:52 PM 61.2°F16.2°C 47.7°F8.7°C 61% 4.0 mph E6.4 kmh E 4.0 mph6.4 kmh 29.86 in1011.2 mb - 0.00 in0.0 mm 0.00 in0.0 mm
12:47 PM 61.0°F16.1°C 48.4°F9.1°C 63% 4.9 mph SE7.9 kmh SE -- 29.86 in1011.2 mb - 0.00 in0.0 mm 0.00 in0.0 mm
12:42 PM 61.0°F16.1°C 47.5°F8.6°C 61% 4.9 mph ESE7.9 kmh ESE 4.0 mph6.4 kmh 29.85 in1010.8 mb - 0.00 in0.0 mm 0.00 in0.0 mm
12:37 PM 61.2°F16.2°C 48.4°F9.1°C 63% 2.9 mph S4.7 kmh S 4.9 mph7.9 kmh 29.85 in1010.8 mb - 0.00 in0.0 mm 0.00 in0.0 mm
12:32 PM 61.2°F16.2°C 47.7°F8.7°C 61% 4.0 mph SW6.4 kmh SW 8.1 mph13.0 kmh 29.86 in1011.2 mb - 0.00 in0.0 mm 0.00 in0.0 mm
12:27 PM 61.5°F16.4°C 48.4°F9.1°C 62% 4.9 mph NW7.9 kmh NW 2.9 mph4.7 kmh 29.86 in1011.2 mb - 0.00 in0.0 mm 0.00 in0.0 mm
12:22 PM 61.5°F16.4°C 48.7°F9.3°C 63% 4.9 mph E7.9 kmh E 0.9 mph1.4 kmh 29.86 in1011.2 mb - 0.00 in0.0 mm 0.00 in0.0 mm
12:17 PM 61.5°F16.4°C 49.6°F9.8°C 65% 4.0 mph NE6.4 kmh NE 6.9 mph11.1 kmh 29.85 in1010.8 mb - 0.00 in0.0 mm 0.00 in0.0 mm
12:12 PM 61.2°F16.2°C 48.9°F9.4°C 64% 4.9 mph NNE7.9 kmh NNE 2.0 mph3.2 kmh 29.86 in1011.2 mb - 0.00 in0.0 mm 0.00 in0.0 mm
12:07 PM 61.3°F16.3°C 48.6°F9.2°C 63% 6.0 mph E9.7 kmh E 6.0 mph9.7 kmh 29.85 in1010.8 mb - 0.00 in0.0 mm 0.00 in0.0 mm
12:02 PM 61.3°F16.3°C 49.1°F9.5°C 64% 4.9 mph WNW7.9 kmh WNW 19.0 mph30.6 kmh 29.86 in1011.2 mb - 0.00 in0.0 mm 0.00 in0.0 mm
11:57 AM 60.8°F16.0°C 49.5°F9.7°C 66% 4.9 mph E7.9 kmh E 4.9 mph7.9 kmh 29.86 in1011.2 mb - 0.00 in0.0 mm 0.00 in0.0 mm
11:52 AM 60.4°F15.8°C 49.1°F9.5°C 66% 4.0 mph NE6.4 kmh NE 6.0 mph9.7 kmh 29.86 in1011.2 mb - 0.00 in0.0 mm 0.00 in0.0 mm
11:47 AM 60.3°F15.7°C 49.3°F9.6°C 67% 4.9 mph NE7.9 kmh NE 4.0 mph6.4 kmh 29.86 in1011.2 mb - 0.00 in0.0 mm 0.00 in0.0 mm
11:42 AM 59.7°F15.4°C 48.7°F9.3°C 67% 6.0 mph NNE9.7 kmh NNE 6.0 mph9.7 kmh 29.86 in1011.2 mb - 0.00 in0.0 mm 0.00 in0.0 mm
11:37 AM 59.7°F15.4°C 48.7°F9.3°C 67% 6.0 mph N9.7 kmh N 13.0 mph20.9 kmh 29.86 in1011.2 mb - 0.00 in0.0 mm 0.00 in0.0 mm
11:32 AM 59.5°F15.3°C 49.8°F9.9°C 70% 6.0 mph SE9.7 kmh SE 2.0 mph3.2 kmh 29.86 in1011.2 mb - 0.00 in0.0 mm 0.00 in0.0 mm
11:27 AM 59.2°F15.1°C 49.5°F9.7°C 70% 4.9 mph SE7.9 kmh SE 6.9 mph11.1 kmh 29.86 in1011.2 mb - 0.00 in0.0 mm 0.00 in0.0 mm
11:22 AM 58.8°F14.9°C 49.8°F9.9°C 72% 4.0 mph ESE6.4 kmh ESE 12.1 mph19.5 kmh 29.86 in1011.2 mb - 0.00 in0.0 mm 0.00 in0.0 mm
11:17 AM 58.5°F14.7°C 49.1°F9.5°C 71% 4.0 mph NNW6.4 kmh NNW 2.0 mph3.2 kmh 29.86 in1011.2 mb - 0.00 in0.0 mm 0.00 in0.0 mm
11:12 AM 57.9°F14.4°C 49.3°F9.6°C 73% 4.0 mph SE6.4 kmh SE 4.0 mph6.4 kmh 29.86 in1011.2 mb - 0.00 in0.0 mm 0.00 in0.0 mm
11:07 AM 57.7°F14.3°C 49.1°F9.5°C 73% 4.9 mph E7.9 kmh E -- 29.87 in1011.5 mb - 0.00 in0.0 mm 0.00 in0.0 mm
11:02 AM 57.6°F14.2°C 48.9°F9.4°C 73% 4.0 mph SE6.4 kmh SE 8.1 mph13.0 kmh 29.87 in1011.5 mb - 0.00 in0.0 mm 0.00 in0.0 mm
10:57 AM 57.4°F14.1°C 48.7°F9.3°C 73% 4.0 mph E6.4 kmh E 2.9 mph4.7 kmh 29.86 in1011.2 mb - 0.00 in0.0 mm 0.00 in0.0 mm
10:52 AM 57.2°F14.0°C 48.2°F9.0°C 72% 4.0 mph ENE6.4 kmh ENE 4.0 mph6.4 kmh 29.87 in1011.5 mb - 0.00 in0.0 mm 0.00 in0.0 mm
10:47 AM 57.0°F13.9°C 48.4°F9.1°C 73% 4.0 mph SE6.4 kmh SE 4.0 mph6.4 kmh 29.86 in1011.2 mb - 0.00 in0.0 mm 0.00 in0.0 mm
10:42 AM 57.0°F13.9°C 48.4°F9.1°C 73% 2.9 mph SSE4.7 kmh SSE 2.9 mph4.7 kmh 29.87 in1011.5 mb - 0.00 in0.0 mm 0.00 in0.0 mm
10:37 AM 56.8°F13.8°C 48.2°F9.0°C 73% 2.9 mph NE4.7 kmh NE 10.1 mph16.3 kmh 29.87 in1011.5 mb - 0.00 in0.0 mm 0.00 in0.0 mm
10:32 AM 56.8°F13.8°C 47.8°F8.8°C 72% 4.0 mph SE6.4 kmh SE 2.9 mph4.7 kmh 29.87 in1011.5 mb - 0.00 in0.0 mm 0.00 in0.0 mm
10:27 AM 56.7°F13.7°C 47.7°F8.7°C 72% 4.0 mph ESE6.4 kmh ESE 2.0 mph3.2 kmh 29.87 in1011.5 mb - 0.00 in0.0 mm 0.00 in0.0 mm
10:22 AM 56.5°F13.6°C 47.5°F8.6°C 72% 4.0 mph WNW6.4 kmh WNW 4.9 mph7.9 kmh 29.87 in1011.5 mb - 0.00 in0.0 mm 0.00 in0.0 mm
10:17 AM 56.5°F13.6°C 47.5°F8.6°C 72% 2.9 mph NE4.7 kmh NE 2.0 mph3.2 kmh 29.87 in1011.5 mb - 0.00 in0.0 mm 0.00 in0.0 mm
10:12 AM 56.5°F13.6°C 47.5°F8.6°C 72% 4.0 mph NNW6.4 kmh NNW 4.9 mph7.9 kmh 29.87 in1011.5 mb - 0.00 in0.0 mm 0.00 in0.0 mm
10:07 AM 56.5°F13.6°C 47.5°F8.6°C 72% 4.0 mph NW6.4 kmh NW 4.0 mph6.4 kmh 29.87 in1011.5 mb - 0.00 in0.0 mm 0.00 in0.0 mm
10:02 AM 56.5°F13.6°C 47.1°F8.4°C 71% 4.0 mph NNW6.4 kmh NNW 0.9 mph1.4 kmh 29.87 in1011.5 mb - 0.00 in0.0 mm 0.00 in0.0 mm
09:57 AM 56.7°F13.7°C 47.3°F8.5°C 71% 4.9 mph SW7.9 kmh SW 6.0 mph9.7 kmh 29.87 in1011.5 mb - 0.00 in0.0 mm 0.00 in0.0 mm
09:47 AM 56.8°F13.8°C 47.8°F8.8°C 72% 4.0 mph NNW6.4 kmh NNW 4.9 mph7.9 kmh 29.87 in1011.5 mb - 0.00 in0.0 mm 0.00 in0.0 mm
09:42 AM 56.8°F13.8°C 47.5°F8.6°C 71% 4.0 mph E6.4 kmh E 4.9 mph7.9 kmh 29.87 in1011.5 mb - 0.00 in0.0 mm 0.00 in0.0 mm
09:37 AM 57.0°F13.9°C 47.7°F8.7°C 71% 4.0 mph ENE6.4 kmh ENE 2.9 mph4.7 kmh 29.87 in1011.5 mb - 0.00 in0.0 mm 0.00 in0.0 mm
09:32 AM 57.2°F14.0°C 47.8°F8.8°C 71% 4.0 mph ENE6.4 kmh ENE 4.9 mph7.9 kmh 29.87 in1011.5 mb - 0.00 in0.0 mm 0.00 in0.0 mm
09:27 AM 57.2°F14.0°C 47.5°F8.6°C 70% 4.0 mph E6.4 kmh E 2.9 mph4.7 kmh 29.87 in1011.5 mb - 0.00 in0.0 mm 0.00 in0.0 mm
09:22 AM 57.0°F13.9°C 48.0°F8.9°C 72% 4.0 mph S6.4 kmh S 2.9 mph4.7 kmh 29.86 in1011.2 mb - 0.00 in0.0 mm 0.00 in0.0 mm
09:17 AM 56.8°F13.8°C 47.8°F8.8°C 72% 4.0 mph WSW6.4 kmh WSW 0.9 mph1.4 kmh 29.87 in1011.5 mb - 0.00 in0.0 mm 0.00 in0.0 mm
09:12 AM 56.7°F13.7°C 48.0°F8.9°C 73% 4.0 mph SSW6.4 kmh SSW 2.9 mph4.7 kmh 29.87 in1011.5 mb - 0.00 in0.0 mm 0.00 in0.0 mm
09:07 AM 56.5°F13.6°C 48.0°F8.9°C 73% 6.0 mph SW9.7 kmh SW 2.0 mph3.2 kmh 29.87 in1011.5 mb - 0.00 in0.0 mm 0.00 in0.0 mm
09:02 AM 56.5°F13.6°C 48.0°F8.9°C 73% 4.9 mph SW7.9 kmh SW 0.9 mph1.4 kmh 29.87 in1011.5 mb - 0.00 in0.0 mm 0.00 in0.0 mm
08:57 AM 56.5°F13.6°C 48.7°F9.3°C 75% 6.0 mph SE9.7 kmh SE 8.1 mph13.0 kmh 29.87 in1011.5 mb - 0.00 in0.0 mm 0.00 in0.0 mm
08:52 AM 56.5°F13.6°C 48.7°F9.3°C 75% 6.9 mph ESE11.1 kmh ESE 8.9 mph14.3 kmh 29.86 in1011.2 mb - 0.00 in0.0 mm 0.00 in0.0 mm
08:47 AM 56.5°F13.6°C 48.9°F9.4°C 76% 6.0 mph NE9.7 kmh NE 8.1 mph13.0 kmh 29.86 in1011.2 mb - 0.00 in0.0 mm 0.00 in0.0 mm
08:42 AM 56.3°F13.5°C 49.1°F9.5°C 77% 6.0 mph SE9.7 kmh SE 2.9 mph4.7 kmh 29.86 in1011.2 mb - 0.00 in0.0 mm 0.00 in0.0 mm
08:37 AM 56.1°F13.4°C 49.3°F9.6°C 78% 4.9 mph E7.9 kmh E 2.9 mph4.7 kmh 29.85 in1010.8 mb - 0.00 in0.0 mm 0.00 in0.0 mm
08:32 AM 56.1°F13.4°C 48.9°F9.4°C 77% 4.0 mph ESE6.4 kmh ESE 2.0 mph3.2 kmh 29.86 in1011.2 mb - 0.00 in0.0 mm 0.00 in0.0 mm
08:27 AM 56.1°F13.4°C 48.9°F9.4°C 77% 2.9 mph E4.7 kmh E 6.9 mph11.1 kmh 29.85 in1010.8 mb - 0.00 in0.0 mm 0.00 in0.0 mm
08:22 AM 56.1°F13.4°C 48.9°F9.4°C 77% 2.0 mph NW3.2 kmh NW -- 29.86 in1011.2 mb - 0.00 in0.0 mm 0.00 in0.0 mm
08:17 AM 56.1°F13.4°C 48.7°F9.3°C 76% 4.0 mph E6.4 kmh E 2.0 mph3.2 kmh 29.86 in1011.2 mb - 0.00 in0.0 mm 0.00 in0.0 mm
08:12 AM 56.1°F13.4°C 48.7°F9.3°C 76% 4.9 mph SE7.9 kmh SE 4.0 mph6.4 kmh 29.85 in1010.8 mb - 0.00 in0.0 mm 0.00 in0.0 mm
08:07 AM 56.1°F13.4°C 48.7°F9.3°C 76% 4.9 mph SE7.9 kmh SE 8.1 mph13.0 kmh 29.86 in1011.2 mb - 0.00 in0.0 mm 0.00 in0.0 mm
07:57 AM 56.1°F13.4°C 48.7°F9.3°C 76% 8.1 mph S13.0 kmh S 8.9 mph14.3 kmh 29.85 in1010.8 mb - 0.00 in0.0 mm 0.00 in0.0 mm
07:52 AM 56.1°F13.4°C 48.7°F9.3°C 76% 6.0 mph E9.7 kmh E 6.9 mph11.1 kmh 29.85 in1010.8 mb - 0.00 in0.0 mm 0.00 in0.0 mm
07:47 AM 56.1°F13.4°C 48.7°F9.3°C 76% 4.0 mph NE6.4 kmh NE 2.9 mph4.7 kmh 29.85 in1010.8 mb - 0.00 in0.0 mm 0.00 in0.0 mm
07:42 AM 56.1°F13.4°C 48.4°F9.1°C 75% 6.0 mph NE9.7 kmh NE 4.9 mph7.9 kmh 29.85 in1010.8 mb - 0.00 in0.0 mm 0.00 in0.0 mm
07:37 AM 56.1°F13.4°C 48.0°F8.9°C 74% 6.9 mph ESE11.1 kmh ESE 6.9 mph11.1 kmh 29.85 in1010.8 mb - 0.00 in0.0 mm 0.00 in0.0 mm
07:32 AM 56.3°F13.5°C 48.2°F9.0°C 74% 6.0 mph E9.7 kmh E 2.0 mph3.2 kmh 29.84 in1010.5 mb - 0.00 in0.0 mm 0.00 in0.0 mm
07:27 AM 56.3°F13.5°C 48.2°F9.0°C 74% 6.0 mph NW9.7 kmh NW 6.9 mph11.1 kmh 29.84 in1010.5 mb - 0.00 in0.0 mm 0.00 in0.0 mm
07:22 AM 56.5°F13.6°C 48.0°F8.9°C 73% 8.1 mph E13.0 kmh E 12.1 mph19.5 kmh 29.84 in1010.5 mb - 0.00 in0.0 mm 0.00 in0.0 mm
07:17 AM 56.5°F13.6°C 48.0°F8.9°C 73% 6.9 mph NW11.1 kmh NW 6.9 mph11.1 kmh 29.85 in1010.8 mb - 0.00 in0.0 mm 0.00 in0.0 mm
07:07 AM 56.5°F13.6°C 48.4°F9.1°C 74% 6.9 mph E11.1 kmh E 4.9 mph7.9 kmh 29.84 in1010.5 mb - 0.00 in0.0 mm 0.00 in0.0 mm
07:02 AM 56.5°F13.6°C 48.7°F9.3°C 75% 6.0 mph ESE9.7 kmh ESE 8.9 mph14.3 kmh 29.85 in1010.8 mb - 0.00 in0.0 mm 0.00 in0.0 mm
06:57 AM 56.3°F13.5°C 49.1°F9.5°C 77% 6.9 mph SE11.1 kmh SE 2.0 mph3.2 kmh 29.84 in1010.5 mb - 0.00 in0.0 mm 0.00 in0.0 mm
06:52 AM 56.3°F13.5°C 49.1°F9.5°C 77% 6.0 mph S9.7 kmh S 8.1 mph13.0 kmh 29.84 in1010.5 mb - 0.00 in0.0 mm 0.00 in0.0 mm
06:47 AM 56.3°F13.5°C 49.1°F9.5°C 77% 4.9 mph ESE7.9 kmh ESE 8.9 mph14.3 kmh 29.84 in1010.5 mb - 0.00 in0.0 mm 0.00 in0.0 mm
06:42 AM 56.3°F13.5°C 49.1°F9.5°C 77% 4.0 mph ESE6.4 kmh ESE 4.0 mph6.4 kmh 29.85 in1010.8 mb - 0.00 in0.0 mm 0.00 in0.0 mm
06:37 AM 56.3°F13.5°C 49.1°F9.5°C 77% 4.0 mph NE6.4 kmh NE 2.9 mph4.7 kmh 29.84 in1010.5 mb - 0.00 in0.0 mm 0.00 in0.0 mm
06:32 AM 56.3°F13.5°C 49.5°F9.7°C 78% 4.0 mph S6.4 kmh S 2.0 mph3.2 kmh 29.84 in1010.5 mb - 0.00 in0.0 mm 0.00 in0.0 mm
06:27 AM 56.1°F13.4°C 49.6°F9.8°C 79% 2.9 mph ESE4.7 kmh ESE 4.9 mph7.9 kmh 29.84 in1010.5 mb - 0.00 in0.0 mm 0.00 in0.0 mm
06:22 AM 56.3°F13.5°C 49.8°F9.9°C 79% 4.0 mph SSW6.4 kmh SSW -- 29.84 in1010.5 mb - 0.00 in0.0 mm 0.00 in0.0 mm
06:17 AM 56.5°F13.6°C 50.0°F10.0°C 79% 4.0 mph E6.4 kmh E 14.1 mph22.7 kmh 29.84 in1010.5 mb - 0.00 in0.0 mm 0.00 in0.0 mm
06:12 AM 56.5°F13.6°C 50.0°F10.0°C 79% 2.9 mph SE4.7 kmh SE 2.0 mph3.2 kmh 29.84 in1010.5 mb - 0.00 in0.0 mm 0.00 in0.0 mm
06:07 AM 56.5°F13.6°C 50.0°F10.0°C 79% 4.9 mph S7.9 kmh S 2.9 mph4.7 kmh 29.84 in1010.5 mb - 0.00 in0.0 mm 0.00 in0.0 mm
06:02 AM 56.5°F13.6°C 50.0°F10.0°C 79% 4.9 mph NE7.9 kmh NE 2.0 mph3.2 kmh 29.84 in1010.5 mb - 0.00 in0.0 mm 0.00 in0.0 mm
05:57 AM 56.7°F13.7°C 50.2°F10.1°C 79% 4.9 mph SE7.9 kmh SE 4.0 mph6.4 kmh 29.84 in1010.5 mb - 0.00 in0.0 mm 0.00 in0.0 mm
05:52 AM 56.7°F13.7°C 49.8°F9.9°C 78% 4.9 mph ESE7.9 kmh ESE 10.1 mph16.3 kmh 29.84 in1010.5 mb - 0.00 in0.0 mm 0.00 in0.0 mm
05:47 AM 56.7°F13.7°C 50.2°F10.1°C 79% 4.0 mph ESE6.4 kmh ESE 6.9 mph11.1 kmh 29.83 in1010.2 mb - 0.00 in0.0 mm 0.00 in0.0 mm
05:42 AM 56.7°F13.7°C 49.8°F9.9°C 78% 4.0 mph SE6.4 kmh SE 4.9 mph7.9 kmh 29.83 in1010.2 mb - 0.00 in0.0 mm 0.00 in0.0 mm
05:37 AM 56.7°F13.7°C 49.8°F9.9°C 78% 6.0 mph ESE9.7 kmh ESE 4.9 mph7.9 kmh 29.82 in1009.8 mb - 0.00 in0.0 mm 0.00 in0.0 mm
05:27 AM 56.7°F13.7°C 49.8°F9.9°C 78% 4.9 mph E7.9 kmh E 8.1 mph13.0 kmh 29.83 in1010.2 mb - 0.00 in0.0 mm 0.00 in0.0 mm
05:22 AM 56.8°F13.8°C 50.4°F10.2°C 79% 4.9 mph SE7.9 kmh SE 6.9 mph11.1 kmh 29.82 in1009.8 mb - 0.00 in0.0 mm 0.00 in0.0 mm
05:17 AM 56.8°F13.8°C 50.4°F10.2°C 79% 4.0 mph E6.4 kmh E 4.9 mph7.9 kmh 29.83 in1010.2 mb - 0.00 in0.0 mm 0.00 in0.0 mm
05:12 AM 56.8°F13.8°C 50.4°F10.2°C 79% 2.9 mph E4.7 kmh E 8.1 mph13.0 kmh 29.83 in1010.2 mb - 0.00 in0.0 mm 0.00 in0.0 mm
05:07 AM 56.8°F13.8°C 50.4°F10.2°C 79% 2.9 mph E4.7 kmh E 6.0 mph9.7 kmh 29.83 in1010.2 mb - 0.00 in0.0 mm 0.00 in0.0 mm
05:02 AM 56.8°F13.8°C 50.0°F10.0°C 78% 4.9 mph E7.9 kmh E 0.9 mph1.4 kmh 29.82 in1009.8 mb - 0.00 in0.0 mm 0.00 in0.0 mm
04:57 AM 57.0°F13.9°C 50.2°F10.1°C 78% 4.9 mph NNE7.9 kmh NNE 4.0 mph6.4 kmh 29.82 in1009.8 mb - 0.00 in0.0 mm 0.00 in0.0 mm
04:52 AM 57.0°F13.9°C 50.2°F10.1°C 78% 6.0 mph NNW9.7 kmh NNW 2.9 mph4.7 kmh 29.83 in1010.2 mb - 0.00 in0.0 mm 0.00 in0.0 mm
04:47 AM 57.0°F13.9°C 50.2°F10.1°C 78% 6.0 mph NNW9.7 kmh NNW 10.1 mph16.3 kmh 29.82 in1009.8 mb - 0.00 in0.0 mm 0.00 in0.0 mm
04:42 AM 57.2°F14.0°C 50.4°F10.2°C 78% 4.9 mph N7.9 kmh N 10.1 mph16.3 kmh 29.83 in1010.2 mb - 0.00 in0.0 mm 0.00 in0.0 mm
04:37 AM 57.4°F14.1°C 50.5°F10.3°C 78% 4.9 mph NNW7.9 kmh NNW 6.0 mph9.7 kmh 29.83 in1010.2 mb - 0.00 in0.0 mm 0.00 in0.0 mm
04:32 AM 57.4°F14.1°C 50.5°F10.3°C 78% 4.9 mph NE7.9 kmh NE 8.1 mph13.0 kmh 29.82 in1009.8 mb - 0.00 in0.0 mm 0.00 in0.0 mm
04:27 AM 57.6°F14.2°C 50.7°F10.4°C 78% 4.9 mph E7.9 kmh E 0.9 mph1.4 kmh 29.83 in1010.2 mb - 0.00 in0.0 mm 0.00 in0.0 mm
04:22 AM 57.6°F14.2°C 50.7°F10.4°C 78% 4.0 mph E6.4 kmh E 4.0 mph6.4 kmh 29.82 in1009.8 mb - 0.00 in0.0 mm 0.00 in0.0 mm
04:17 AM 57.7°F14.3°C 50.5°F10.3°C 77% 4.0 mph NE6.4 kmh NE 6.9 mph11.1 kmh 29.82 in1009.8 mb - 0.00 in0.0 mm 0.00 in0.0 mm
04:12 AM 57.7°F14.3°C 50.5°F10.3°C 77% 2.9 mph SE4.7 kmh SE 2.0 mph3.2 kmh 29.82 in1009.8 mb - 0.00 in0.0 mm 0.00 in0.0 mm
04:07 AM 57.9°F14.4°C 50.7°F10.4°C 77% 4.0 mph SSE6.4 kmh SSE 0.9 mph1.4 kmh 29.82 in1009.8 mb - 0.00 in0.0 mm 0.00 in0.0 mm
04:02 AM 57.9°F14.4°C 50.7°F10.4°C 77% 4.0 mph SSE6.4 kmh SSE 2.9 mph4.7 kmh 29.82 in1009.8 mb - 0.00 in0.0 mm 0.00 in0.0 mm
03:57 AM 58.1°F14.5°C 50.9°F10.5°C 77% 4.0 mph ENE6.4 kmh ENE 0.9 mph1.4 kmh 29.82 in1009.8 mb - 0.00 in0.0 mm 0.00 in0.0 mm
03:52 AM 58.3°F14.6°C 50.7°F10.4°C 76% 2.9 mph N4.7 kmh N 2.0 mph3.2 kmh 29.82 in1009.8 mb - 0.00 in0.0 mm 0.00 in0.0 mm
03:47 AM 58.3°F14.6°C 50.7°F10.4°C 76% 2.9 mph E4.7 kmh E 2.9 mph4.7 kmh 29.82 in1009.8 mb - 0.00 in0.0 mm 0.00 in0.0 mm
03:42 AM 58.5°F14.7°C 50.9°F10.5°C 76% 2.9 mph E4.7 kmh E -- 29.82 in1009.8 mb - 0.00 in0.0 mm 0.00 in0.0 mm
03:37 AM 58.5°F14.7°C 50.5°F10.3°C 75% 4.9 mph ENE7.9 kmh ENE 4.0 mph6.4 kmh 29.82 in1009.8 mb - 0.00 in0.0 mm 0.00 in0.0 mm
03:32 AM 58.5°F14.7°C 50.5°F10.3°C 75% 4.9 mph SE7.9 kmh SE 2.0 mph3.2 kmh 29.82 in1009.8 mb - 0.00 in0.0 mm 0.00 in0.0 mm
03:27 AM 58.5°F14.7°C 50.5°F10.3°C 75% 2.9 mph E4.7 kmh E 2.9 mph4.7 kmh 29.82 in1009.8 mb - 0.00 in0.0 mm 0.00 in0.0 mm
03:22 AM 58.5°F14.7°C 50.2°F10.1°C 74% 4.0 mph SSE6.4 kmh SSE 2.9 mph4.7 kmh 29.83 in1010.2 mb - 0.00 in0.0 mm 0.00 in0.0 mm
03:17 AM 58.6°F14.8°C 50.4°F10.2°C 74% 4.9 mph NW7.9 kmh NW 2.0 mph3.2 kmh 29.82 in1009.8 mb - 0.00 in0.0 mm 0.00 in0.0 mm
03:12 AM 58.6°F14.8°C 50.4°F10.2°C 74% 4.9 mph SE7.9 kmh SE 8.9 mph14.3 kmh 29.82 in1009.8 mb - 0.00 in0.0 mm 0.00 in0.0 mm
03:07 AM 58.8°F14.9°C 50.5°F10.3°C 74% 6.0 mph NE9.7 kmh NE 6.9 mph11.1 kmh 29.82 in1009.8 mb - 0.00 in0.0 mm 0.00 in0.0 mm
03:02 AM 58.8°F14.9°C 50.5°F10.3°C 74% 6.0 mph NNE9.7 kmh NNE 2.9 mph4.7 kmh 29.82 in1009.8 mb - 0.00 in0.0 mm 0.00 in0.0 mm
02:57 AM 59.0°F15.0°C 50.7°F10.4°C 74% 6.9 mph NNE11.1 kmh NNE 6.9 mph11.1 kmh 29.83 in1010.2 mb - 0.00 in0.0 mm 0.00 in0.0 mm
02:52 AM 59.2°F15.1°C 50.5°F10.3°C 73% 8.9 mph N14.3 kmh N -- 29.82 in1009.8 mb - 0.00 in0.0 mm 0.00 in0.0 mm
02:47 AM 59.2°F15.1°C 50.5°F10.3°C 73% 8.9 mph NW14.3 kmh NW 8.1 mph13.0 kmh 29.83 in1010.2 mb - 0.00 in0.0 mm 0.00 in0.0 mm
02:42 AM 59.4°F15.2°C 50.4°F10.2°C 72% 8.1 mph N13.0 kmh N 8.1 mph13.0 kmh 29.82 in1009.8 mb - 0.00 in0.0 mm 0.00 in0.0 mm
02:37 AM 59.5°F15.3°C 50.5°F10.3°C 72% 6.0 mph NW9.7 kmh NW 6.0 mph9.7 kmh 29.82 in1009.8 mb - 0.00 in0.0 mm 0.00 in0.0 mm
02:32 AM 59.5°F15.3°C 50.5°F10.3°C 72% 4.9 mph N7.9 kmh N 11.0 mph17.7 kmh 29.83 in1010.2 mb - 0.00 in0.0 mm 0.00 in0.0 mm
02:27 AM 59.5°F15.3°C 50.5°F10.3°C 72% 6.0 mph ENE9.7 kmh ENE 2.0 mph3.2 kmh 29.83 in1010.2 mb - 0.00 in0.0 mm 0.00 in0.0 mm
02:22 AM 59.5°F15.3°C 50.5°F10.3°C 72% 4.9 mph NE7.9 kmh NE 12.1 mph19.5 kmh 29.82 in1009.8 mb - 0.00 in0.0 mm 0.00 in0.0 mm
02:17 AM 59.7°F15.4°C 50.7°F10.4°C 72% 6.0 mph WSW9.7 kmh WSW 4.9 mph7.9 kmh 29.82 in1009.8 mb - 0.00 in0.0 mm 0.00 in0.0 mm
02:12 AM 59.7°F15.4°C 50.4°F10.2°C 71% 4.9 mph N7.9 kmh N 2.0 mph3.2 kmh 29.83 in1010.2 mb - 0.00 in0.0 mm 0.00 in0.0 mm
02:07 AM 59.7°F15.4°C 50.4°F10.2°C 71% 6.0 mph NW9.7 kmh NW 6.9 mph11.1 kmh 29.83 in1010.2 mb - 0.00 in0.0 mm 0.00 in0.0 mm
02:02 AM 59.9°F15.5°C 50.5°F10.3°C 71% 8.1 mph ESE13.0 kmh ESE 4.9 mph7.9 kmh 29.83 in1010.2 mb - 0.00 in0.0 mm 0.00 in0.0 mm
01:57 AM 59.9°F15.5°C 50.5°F10.3°C 71% 8.1 mph NNE13.0 kmh NNE 2.9 mph4.7 kmh 29.83 in1010.2 mb - 0.00 in0.0 mm 0.00 in0.0 mm
01:52 AM 59.9°F15.5°C 50.5°F10.3°C 71% 6.0 mph NW9.7 kmh NW 15.0 mph24.1 kmh 29.83 in1010.2 mb - 0.00 in0.0 mm 0.00 in0.0 mm
01:47 AM 59.7°F15.4°C 50.4°F10.2°C 71% 4.0 mph E6.4 kmh E 6.0 mph9.7 kmh 29.84 in1010.5 mb - 0.00 in0.0 mm 0.00 in0.0 mm
01:42 AM 59.7°F15.4°C 50.4°F10.2°C 71% 4.9 mph ESE7.9 kmh ESE 4.9 mph7.9 kmh 29.83 in1010.2 mb - 0.00 in0.0 mm 0.00 in0.0 mm
01:37 AM 59.7°F15.4°C 50.4°F10.2°C 71% 4.9 mph SE7.9 kmh SE 2.0 mph3.2 kmh 29.83 in1010.2 mb - 0.00 in0.0 mm 0.00 in0.0 mm
01:32 AM 59.7°F15.4°C 50.0°F10.0°C 70% 4.0 mph SE6.4 kmh SE 2.9 mph4.7 kmh 29.83 in1010.2 mb - 0.00 in0.0 mm 0.00 in0.0 mm
01:27 AM 59.7°F15.4°C 50.4°F10.2°C 71% 2.9 mph E4.7 kmh E 4.9 mph7.9 kmh 29.83 in1010.2 mb - 0.00 in0.0 mm 0.00 in0.0 mm
01:22 AM 59.9°F15.5°C 50.5°F10.3°C 71% 2.9 mph SE4.7 kmh SE 2.0 mph3.2 kmh 29.83 in1010.2 mb - 0.00 in0.0 mm 0.00 in0.0 mm
01:17 AM 59.9°F15.5°C 50.2°F10.1°C 70% 4.0 mph SE6.4 kmh SE 2.0 mph3.2 kmh 29.83 in1010.2 mb - 0.00 in0.0 mm 0.00 in0.0 mm
01:12 AM 60.1°F15.6°C 50.2°F10.1°C 70% 4.0 mph ESE6.4 kmh ESE 0.9 mph1.4 kmh 29.83 in1010.2 mb - 0.00 in0.0 mm 0.00 in0.0 mm
01:07 AM 60.1°F15.6°C 50.2°F10.1°C 70% 4.9 mph ENE7.9 kmh ENE 8.1 mph13.0 kmh 29.83 in1010.2 mb - 0.00 in0.0 mm 0.00 in0.0 mm
01:02 AM 60.1°F15.6°C 49.8°F9.9°C 69% 4.9 mph S7.9 kmh S 2.9 mph4.7 kmh 29.83 in1010.2 mb - 0.00 in0.0 mm 0.00 in0.0 mm
12:57 AM 60.1°F15.6°C 49.8°F9.9°C 69% 4.9 mph S7.9 kmh S 2.0 mph3.2 kmh 29.83 in1010.2 mb - 0.00 in0.0 mm 0.00 in0.0 mm
12:52 AM 60.1°F15.6°C 49.8°F9.9°C 69% 4.0 mph SE6.4 kmh SE 6.9 mph11.1 kmh 29.83 in1010.2 mb - 0.00 in0.0 mm 0.00 in0.0 mm
12:47 AM 59.9°F15.5°C 49.6°F9.8°C 69% 4.0 mph SSE6.4 kmh SSE 2.9 mph4.7 kmh 29.84 in1010.5 mb - 0.00 in0.0 mm 0.00 in0.0 mm
12:17 AM 59.4°F15.2°C 49.6°F9.8°C 70% 2.0 mph E3.2 kmh E 2.0 mph3.2 kmh 29.84 in1010.5 mb - 0.00 in0.0 mm 0.00 in0.0 mm
12:12 AM 59.4°F15.2°C 49.6°F9.8°C 70% 2.0 mph E3.2 kmh E 2.9 mph4.7 kmh 29.84 in1010.5 mb - 0.00 in0.0 mm 0.00 in0.0 mm
12:07 AM 59.4°F15.2°C 49.1°F9.5°C 69% 2.0 mph S3.2 kmh S 0.9 mph1.4 kmh 29.83 in1010.2 mb - 0.00 in0.0 mm 0.00 in0.0 mm
12:02 AM 59.5°F15.3°C 49.3°F9.6°C 69% 2.0 mph ESE3.2 kmh ESE 2.9 mph4.7 kmh 29.83 in1010.2 mb - 0.00 in0.0 mm 0.00 in0.0 mm